createdAt,value
2022-12-23T00:01:05.670Z,5.72
2022-12-23T00:03:34.609Z,5.67
2022-12-23T00:06:02.256Z,5.65
2022-12-23T00:08:29.930Z,5.55
2022-12-23T00:10:57.718Z,5.46
2022-12-23T00:13:43.502Z,5.51
2022-12-23T00:16:14.497Z,5.46
2022-12-23T00:18:43.050Z,5.47
2022-12-23T00:21:14.463Z,5.48
2022-12-23T00:23:46.297Z,5.38
2022-12-23T00:26:18.263Z,5.44
2022-12-23T00:28:46.381Z,5.46
2022-12-23T00:31:15.023Z,5.46
2022-12-23T00:33:46.745Z,5.46
2022-12-23T00:36:17.797Z,5.49
2022-12-23T00:39:04.850Z,5.42
2022-12-23T00:41:51.524Z,5.45
2022-12-23T00:44:19.387Z,5.33
2022-12-23T00:46:46.811Z,5.35
2022-12-23T00:49:35.802Z,5.41
2022-12-23T00:52:05.266Z,5.33
2022-12-23T00:54:33.017Z,5.32
2022-12-23T00:57:01.415Z,5.55
2022-12-23T00:59:29.091Z,5.39
2022-12-23T01:02:15.267Z,5.44
2022-12-23T01:05:01.579Z,5.52
2022-12-23T01:07:28.853Z,5.43
2022-12-23T01:09:56.361Z,5.46
2022-12-23T01:12:23.745Z,5.47
2022-12-23T01:14:51.249Z,5.48
2022-12-23T01:17:19.245Z,5.40
2022-12-23T01:19:46.798Z,5.32
2022-12-23T01:22:14.009Z,5.33
2022-12-23T01:24:41.564Z,5.35
2022-12-23T01:27:08.951Z,5.38
2022-12-23T01:29:36.517Z,5.39
2022-12-23T01:32:04.082Z,5.32
2022-12-23T01:34:36.669Z,5.33
2022-12-23T01:37:05.812Z,5.30
2022-12-23T01:39:33.633Z,5.29
2022-12-23T01:42:19.736Z,5.29
2022-12-23T01:45:03.098Z,5.22
2022-12-23T01:47:48.478Z,5.22
2022-12-23T01:50:28.228Z,5.12
2022-12-23T01:53:07.984Z,5.07
2022-12-23T01:56:09.143Z,5.03
2022-12-23T01:58:47.998Z,5.15
2022-12-23T02:01:34.123Z,5.11
2022-12-23T02:04:08.170Z,4.99
2022-12-23T02:06:58.642Z,5.15
2022-12-23T02:09:33.244Z,5.06
2022-12-23T02:12:45.815Z,5.08
2022-12-23T02:15:55.384Z,5.02
2022-12-23T02:18:42.224Z,5.12
2022-12-23T02:21:49.631Z,5.06
2022-12-23T02:25:07.470Z,5.09
2022-12-23T02:28:15.776Z,5.14
2022-12-23T02:31:21.715Z,5.05
2022-12-23T02:34:01.415Z,5.04
2022-12-23T02:37:08.936Z,5.08
2022-12-23T02:39:44.715Z,5.01
2022-12-23T02:42:20.841Z,5.19
2022-12-23T02:45:00.563Z,5.11
2022-12-23T02:47:43.601Z,5.10
2022-12-23T02:50:20.200Z,5.15
2022-12-23T02:52:51.041Z,5.21
2022-12-23T02:55:29.182Z,5.17
2022-12-23T02:58:02.028Z,5.21
2022-12-23T03:00:31.002Z,5.30
2022-12-23T03:02:59.944Z,5.27
2022-12-23T03:05:35.180Z,5.26
2022-12-23T03:08:07.958Z,5.32
2022-12-23T03:10:53.561Z,5.26
2022-12-23T03:13:52.938Z,5.23
2022-12-23T03:16:57.914Z,5.19
2022-12-23T03:19:39.778Z,5.22
2022-12-23T03:22:33.136Z,5.23
2022-12-23T03:25:31.985Z,5.13
2022-12-23T03:28:08.559Z,5.20
2022-12-23T03:30:42.403Z,5.07
2022-12-23T03:33:24.703Z,5.08
2022-12-23T03:36:06.547Z,5.19
2022-12-23T03:38:37.875Z,5.23
2022-12-23T03:41:37.123Z,5.16
2022-12-23T03:44:16.285Z,5.22
2022-12-23T03:47:09.791Z,5.26
2022-12-23T03:50:03.210Z,5.23
2022-12-23T03:52:59.891Z,5.26
2022-12-23T03:55:39.077Z,5.15
2022-12-23T03:58:31.184Z,5.14
2022-12-23T04:01:14.380Z,5.21
2022-12-23T04:04:11.706Z,5.13
2022-12-23T04:06:55.113Z,5.23
2022-12-23T04:09:26.919Z,5.13
2022-12-23T04:11:55.642Z,5.17
2022-12-23T04:14:23.666Z,5.15
2022-12-23T04:16:58.417Z,5.16
2022-12-23T04:19:26.172Z,5.09
2022-12-23T04:21:57.669Z,5.08
2022-12-23T04:24:25.202Z,5.00
2022-12-23T04:26:52.417Z,5.25
2022-12-23T04:29:19.971Z,5.20
2022-12-23T04:31:47.268Z,5.07
2022-12-23T04:34:14.978Z,5.07
2022-12-23T04:36:42.207Z,5.16
2022-12-23T04:39:09.997Z,5.02
2022-12-23T04:41:37.216Z,4.97
2022-12-23T04:44:04.950Z,4.86
2022-12-23T04:46:32.293Z,4.88
2022-12-23T04:48:59.829Z,4.89
2022-12-23T04:51:27.151Z,4.78
2022-12-23T04:53:54.675Z,4.80
2022-12-23T04:56:22.026Z,4.88
2022-12-23T04:58:49.610Z,4.85
2022-12-23T05:01:16.885Z,4.91
2022-12-23T05:03:44.476Z,4.92
2022-12-23T05:06:11.757Z,4.91
2022-12-23T05:08:39.274Z,4.94
2022-12-23T05:11:06.557Z,4.90
2022-12-23T05:13:34.054Z,4.98
2022-12-23T05:16:01.331Z,5.00
2022-12-23T05:18:28.893Z,5.06
2022-12-23T05:20:56.155Z,5.09
2022-12-23T05:23:23.718Z,5.09
2022-12-23T05:25:53.720Z,5.12
2022-12-23T05:28:24.590Z,5.19
2022-12-23T05:31:00.141Z,5.08
2022-12-23T05:33:28.981Z,5.11
2022-12-23T05:35:56.964Z,5.13
2022-12-23T05:38:25.095Z,5.09
2022-12-23T05:40:52.545Z,5.13
2022-12-23T05:43:20.476Z,5.10
2022-12-23T05:45:49.062Z,5.11
2022-12-23T05:48:17.232Z,5.13
2022-12-23T05:50:44.423Z,5.22
2022-12-23T05:53:12.040Z,5.38
2022-12-23T05:55:39.308Z,5.30
2022-12-23T05:58:06.895Z,5.30
2022-12-23T06:00:34.607Z,5.46
2022-12-23T06:03:02.314Z,5.40
2022-12-23T06:05:29.771Z,5.56
2022-12-23T06:07:57.292Z,5.50
2022-12-23T06:10:24.574Z,5.47
2022-12-23T06:12:52.072Z,5.41
2022-12-23T06:15:19.345Z,5.51
2022-12-23T06:17:46.920Z,5.63
2022-12-23T06:20:20.464Z,5.50
2022-12-23T06:22:48.718Z,5.48
2022-12-23T06:25:16.224Z,5.61
2022-12-23T06:27:43.943Z,5.70
2022-12-23T06:30:13.131Z,5.72
2022-12-23T06:32:41.190Z,5.82
2022-12-23T06:35:09.718Z,5.85
2022-12-23T06:37:37.295Z,5.88
2022-12-23T06:40:05.376Z,5.96
2022-12-23T06:42:32.958Z,6.07
2022-12-23T06:45:00.204Z,5.91
2022-12-23T06:47:27.737Z,6.00
2022-12-23T06:49:55.077Z,5.91
2022-12-23T06:52:23.185Z,6.05
2022-12-23T06:54:50.576Z,6.07
2022-12-23T06:57:18.124Z,5.93
2022-12-23T06:59:45.345Z,5.91
2022-12-23T07:02:13.057Z,5.88
2022-12-23T07:04:40.368Z,5.88
2022-12-23T07:07:07.925Z,6.00
2022-12-23T07:09:35.183Z,6.04
2022-12-23T07:12:04.002Z,6.17
2022-12-23T07:14:31.363Z,6.21
2022-12-23T07:16:59.061Z,6.26
2022-12-23T07:19:26.309Z,6.28
2022-12-23T07:21:53.810Z,6.35
2022-12-23T07:24:21.087Z,6.48
2022-12-23T07:26:48.574Z,6.58
2022-12-23T07:29:15.833Z,6.46
2022-12-23T07:31:43.383Z,6.39
2022-12-23T07:34:10.720Z,6.42
2022-12-23T07:36:38.310Z,6.34
2022-12-23T07:39:05.926Z,6.33
2022-12-23T07:41:33.506Z,6.36
2022-12-23T07:44:00.678Z,6.39
2022-12-23T07:46:28.387Z,6.41
2022-12-23T07:48:55.685Z,6.47
2022-12-23T07:51:23.257Z,6.43
2022-12-23T07:53:51.506Z,6.48
2022-12-23T07:56:19.687Z,6.65
2022-12-23T07:58:52.353Z,6.60
2022-12-23T08:01:20.922Z,6.69
2022-12-23T08:03:48.622Z,6.80
2022-12-23T08:06:17.276Z,6.87
2022-12-23T08:08:46.413Z,6.91
2022-12-23T08:11:16.542Z,6.92
2022-12-23T08:13:45.923Z,6.87
2022-12-23T08:16:13.468Z,6.95
2022-12-23T08:18:42.181Z,7.13
2022-12-23T08:21:19.571Z,6.96
2022-12-23T08:23:48.369Z,7.18
2022-12-23T08:26:22.445Z,7.38
2022-12-23T08:28:53.612Z,7.61
2022-12-23T08:31:26.628Z,7.63
2022-12-23T08:33:57.458Z,7.87
2022-12-23T08:36:36.176Z,8.41
2022-12-23T08:39:08.845Z,8.76
2022-12-23T08:41:41.888Z,9.05
2022-12-23T08:44:10.767Z,9.13
2022-12-23T08:46:39.291Z,8.85
2022-12-23T08:49:08.109Z,8.92
2022-12-23T08:51:37.003Z,8.62
2022-12-23T08:54:05.468Z,8.37
2022-12-23T08:56:39.170Z,8.01
2022-12-23T08:59:18.014Z,7.97
2022-12-23T09:01:47.597Z,7.95
2022-12-23T09:04:15.668Z,7.91
2022-12-23T09:06:44.320Z,8.04
2022-12-23T09:09:14.478Z,8.28
2022-12-23T09:11:42.851Z,8.32
2022-12-23T09:14:11.707Z,8.48
2022-12-23T09:16:40.047Z,8.47
2022-12-23T09:19:08.038Z,8.46
2022-12-23T09:21:36.041Z,8.17
2022-12-23T09:24:03.494Z,7.98
2022-12-23T09:26:31.890Z,7.96
2022-12-23T09:28:59.871Z,7.91
2022-12-23T09:31:32.633Z,7.85
2022-12-23T09:34:03.445Z,8.05
2022-12-23T09:36:31.143Z,8.12
2022-12-23T09:38:59.643Z,8.20
2022-12-23T09:42:05.545Z,8.39
2022-12-23T09:45:40.095Z,8.20
2022-12-23T09:48:17.603Z,9.06
2022-12-23T09:50:46.728Z,12.20
2022-12-23T09:53:26.908Z,13.00
2022-12-23T09:56:22.764Z,12.54
2022-12-23T09:59:11.078Z,13.67
2022-12-23T10:01:50.895Z,13.93
2022-12-23T10:05:15.289Z,13.43
2022-12-23T10:07:44.936Z,14.04
2022-12-23T10:10:33.006Z,14.54
2022-12-23T10:13:04.707Z,18.19
2022-12-23T10:15:54.604Z,16.43
2022-12-23T10:19:00.091Z,14.99
2022-12-23T10:21:46.730Z,13.59
2022-12-23T10:24:29.464Z,12.27
2022-12-23T10:27:04.312Z,11.65
2022-12-23T10:29:33.820Z,11.22
2022-12-23T10:32:31.609Z,10.69
2022-12-23T10:35:38.719Z,10.42
2022-12-23T10:38:42.694Z,10.14
2022-12-23T10:41:38.367Z,9.99
2022-12-23T10:44:40.091Z,9.80
2022-12-23T10:47:49.823Z,9.64
2022-12-23T10:50:48.537Z,9.47
2022-12-23T10:53:44.367Z,9.51
2022-12-23T10:56:13.724Z,9.21
2022-12-23T10:58:52.905Z,9.23
2022-12-23T11:01:26.462Z,9.12
2022-12-23T11:04:13.874Z,8.97
2022-12-23T11:07:10.795Z,8.94
2022-12-23T11:09:54.905Z,8.80
2022-12-23T11:12:42.627Z,8.88
2022-12-23T11:15:39.590Z,8.72
2022-12-23T11:18:13.213Z,8.87
2022-12-23T11:21:06.284Z,8.70
2022-12-23T11:23:36.630Z,8.73
2022-12-23T11:26:09.903Z,8.69
2022-12-23T11:28:50.819Z,8.78
2022-12-23T11:31:28.639Z,8.70
2022-12-23T11:34:02.041Z,8.79
2022-12-23T11:36:32.326Z,8.77
2022-12-23T11:39:23.790Z,8.81
2022-12-23T11:42:12.019Z,8.64
2022-12-23T11:44:45.741Z,8.65
2022-12-23T11:47:38.941Z,8.59
2022-12-23T11:50:36.850Z,8.53
2022-12-23T11:53:22.242Z,8.58
2022-12-23T11:56:14.912Z,8.56
2022-12-23T11:59:02.980Z,8.60
2022-12-23T12:01:30.800Z,8.62
2022-12-23T12:04:06.332Z,8.59
2022-12-23T12:06:34.986Z,8.71
2022-12-23T12:09:06.795Z,8.69
2022-12-23T12:11:46.712Z,8.66
2022-12-23T12:14:32.726Z,8.63
2022-12-23T12:17:17.842Z,8.80
2022-12-23T12:20:10.725Z,8.61
2022-12-23T12:22:49.561Z,8.71
2022-12-23T12:26:09.622Z,8.69
2022-12-23T12:28:47.933Z,8.67
2022-12-23T12:31:20.660Z,8.73
2022-12-23T12:33:56.979Z,8.89
2022-12-23T12:36:50.911Z,8.93
2022-12-23T12:39:55.025Z,9.05
2022-12-23T12:42:36.845Z,9.07
2022-12-23T12:45:39.945Z,9.21
2022-12-23T12:48:43.703Z,9.14
2022-12-23T12:51:43.408Z,9.07
2022-12-23T12:54:32.283Z,9.12
2022-12-23T12:57:02.341Z,9.10
2022-12-23T12:59:39.037Z,9.07
2022-12-23T13:02:27.736Z,8.86
2022-12-23T13:05:26.373Z,8.89
2022-12-23T13:08:14.337Z,8.71
2022-12-23T13:11:12.984Z,8.60
2022-12-23T13:13:59.262Z,8.55
2022-12-23T13:17:04.879Z,8.56
2022-12-23T13:19:48.580Z,8.45
2022-12-23T13:22:34.271Z,8.48
2022-12-23T13:25:16.641Z,8.47
2022-12-23T13:28:32.606Z,8.62
2022-12-23T13:31:47.928Z,8.31
2022-12-23T13:35:19.736Z,8.21
2022-12-23T13:38:37.691Z,8.09
2022-12-23T13:41:31.551Z,8.09
2022-12-23T13:44:05.580Z,8.16
2022-12-23T13:47:06.224Z,8.12
2022-12-23T13:49:36.555Z,8.07
2022-12-23T13:52:43.898Z,8.11
2022-12-23T13:55:32.957Z,8.05
2022-12-23T13:58:02.949Z,8.02
2022-12-23T14:00:34.024Z,8.20
2022-12-23T14:03:01.266Z,8.08
2022-12-23T14:05:36.474Z,8.09
2022-12-23T14:08:19.573Z,8.03
2022-12-23T14:11:11.924Z,7.94
2022-12-23T14:13:51.100Z,8.16
2022-12-23T14:16:46.036Z,8.08
2022-12-23T14:19:19.043Z,8.00
2022-12-23T14:22:13.117Z,7.85
2022-12-23T14:24:59.142Z,7.73
2022-12-23T14:27:59.908Z,7.83
2022-12-23T14:30:46.834Z,7.94
2022-12-23T14:33:37.491Z,7.84
2022-12-23T14:36:26.895Z,7.73
2022-12-23T14:39:12.869Z,7.65
2022-12-23T14:41:50.580Z,7.70
2022-12-23T14:44:21.122Z,7.64
2022-12-23T14:46:48.408Z,7.61
2022-12-23T14:49:40.877Z,7.59
2022-12-23T14:52:44.721Z,7.57
2022-12-23T14:55:41.945Z,7.62
2022-12-23T14:58:18.110Z,7.52
2022-12-23T15:00:55.788Z,7.60
2022-12-23T15:03:23.322Z,7.52
2022-12-23T15:05:51.390Z,7.56
2022-12-23T15:08:37.840Z,7.51
2022-12-23T15:11:09.557Z,7.53
2022-12-23T15:13:38.087Z,7.50
2022-12-23T15:16:06.166Z,7.41
2022-12-23T15:18:33.560Z,7.38
2022-12-23T15:21:09.917Z,7.34
2022-12-23T15:23:37.198Z,7.28
2022-12-23T15:26:05.008Z,7.23
2022-12-23T15:28:38.740Z,7.34
2022-12-23T15:31:23.589Z,7.23
2022-12-23T15:34:02.763Z,7.36
2022-12-23T15:36:36.920Z,7.31
2022-12-23T15:39:17.221Z,7.33
2022-12-23T15:41:47.514Z,7.27
2022-12-23T15:44:41.402Z,7.28
2022-12-23T15:47:43.150Z,7.35
2022-12-23T15:50:15.568Z,7.41
2022-12-23T15:52:47.659Z,7.41
2022-12-23T15:55:31.335Z,7.42
2022-12-23T15:58:03.691Z,7.40
2022-12-23T16:00:55.502Z,7.38
2022-12-23T16:03:37.720Z,7.33
2022-12-23T16:06:34.500Z,7.32
2022-12-23T16:09:36.123Z,7.33
2022-12-23T16:12:26.618Z,7.34
2022-12-23T16:14:58.077Z,7.33
2022-12-23T16:17:36.222Z,7.45
2022-12-23T16:20:26.854Z,7.43
2022-12-23T16:23:00.984Z,7.53
2022-12-23T16:25:33.507Z,7.43
2022-12-23T16:28:03.986Z,7.46
2022-12-23T16:30:36.202Z,7.42
2022-12-23T16:33:24.494Z,7.36
2022-12-23T16:35:56.036Z,7.35
2022-12-23T16:38:26.569Z,7.38
2022-12-23T16:40:57.120Z,7.37
2022-12-23T16:43:25.550Z,7.29
2022-12-23T16:45:56.934Z,7.34
2022-12-23T16:48:40.632Z,7.29
2022-12-23T16:51:14.016Z,7.22
2022-12-23T16:53:41.333Z,7.20
2022-12-23T16:56:20.964Z,7.19
2022-12-23T16:58:48.428Z,7.14
2022-12-23T17:01:24.976Z,7.17
2022-12-23T17:03:53.175Z,7.19
2022-12-23T17:06:22.204Z,7.18
2022-12-23T17:08:50.187Z,7.23
2022-12-23T17:11:40.109Z,7.13
2022-12-23T17:14:15.826Z,7.27
2022-12-23T17:16:45.407Z,7.17
2022-12-23T17:19:12.918Z,7.24
2022-12-23T17:21:48.701Z,7.21
2022-12-23T17:24:27.646Z,7.18
2022-12-23T17:26:59.115Z,7.37
2022-12-23T17:29:26.555Z,7.22
2022-12-23T17:31:54.413Z,7.37
2022-12-23T17:34:24.921Z,7.37
2022-12-23T17:36:53.259Z,7.23
2022-12-23T17:39:22.260Z,7.25
2022-12-23T17:41:50.220Z,7.25
2022-12-23T17:44:18.465Z,7.19
2022-12-23T17:46:47.267Z,7.30
2022-12-23T17:49:14.890Z,7.32
2022-12-23T17:51:43.423Z,7.23
2022-12-23T17:54:24.013Z,7.36
2022-12-23T17:56:51.947Z,7.41
2022-12-23T17:59:20.788Z,7.47
2022-12-23T18:01:48.758Z,7.54
2022-12-23T18:04:16.290Z,7.33
2022-12-23T18:06:43.824Z,7.39
2022-12-23T18:09:11.080Z,7.51
2022-12-23T18:11:45.649Z,7.40
2022-12-23T18:14:29.269Z,7.46
2022-12-23T18:16:56.820Z,7.57
2022-12-23T18:19:24.694Z,7.40
2022-12-23T18:21:52.960Z,7.40
2022-12-23T18:24:20.295Z,7.34
2022-12-23T18:26:47.906Z,7.37
2022-12-23T18:29:15.146Z,7.36
2022-12-23T18:31:51.354Z,7.42
2022-12-23T18:34:20.321Z,7.31
2022-12-23T18:36:48.531Z,7.40
2022-12-23T18:39:16.085Z,7.28
2022-12-23T18:41:45.473Z,7.29
2022-12-23T18:44:21.270Z,7.32
2022-12-23T18:46:50.175Z,7.36
2022-12-23T18:49:17.689Z,7.44
2022-12-23T18:51:45.812Z,7.37
2022-12-23T18:54:16.267Z,7.34
2022-12-23T18:56:44.887Z,7.33
2022-12-23T18:59:29.355Z,7.33
2022-12-23T19:01:58.333Z,7.43
2022-12-23T19:04:27.121Z,7.54
2022-12-23T19:06:56.749Z,7.47
2022-12-23T19:09:24.863Z,7.50
2022-12-23T19:11:54.384Z,7.45
2022-12-23T19:14:21.993Z,7.64
2022-12-23T19:16:52.369Z,7.56
2022-12-23T19:19:21.609Z,7.44
2022-12-23T19:21:49.474Z,7.45
2022-12-23T19:24:16.816Z,7.55
2022-12-23T19:26:44.504Z,7.75
2022-12-23T19:29:11.941Z,7.76
2022-12-23T19:31:40.373Z,7.64
2022-12-23T19:34:12.866Z,7.67
2022-12-23T19:36:43.362Z,7.60
2022-12-23T19:39:16.612Z,7.55
2022-12-23T19:41:45.373Z,7.59
2022-12-23T19:44:12.738Z,7.58
2022-12-23T19:46:40.465Z,7.58
2022-12-23T19:49:07.832Z,7.59
2022-12-23T19:51:35.579Z,7.53
2022-12-23T19:54:03.268Z,7.50
2022-12-23T19:56:32.534Z,7.57
2022-12-23T19:58:59.799Z,7.46
2022-12-23T20:01:27.910Z,7.44
2022-12-23T20:03:56.868Z,7.34
2022-12-23T20:06:34.009Z,7.33
2022-12-23T20:09:04.439Z,7.57
2022-12-23T20:11:41.979Z,7.45
2022-12-23T20:14:10.189Z,7.36
2022-12-23T20:16:39.626Z,7.44
2022-12-23T20:19:08.095Z,7.40
2022-12-23T20:21:40.287Z,7.43
2022-12-23T20:24:08.160Z,7.38
2022-12-23T20:26:35.792Z,7.32
2022-12-23T20:29:04.041Z,7.36
2022-12-23T20:31:35.597Z,7.38
2022-12-23T20:34:05.248Z,7.33
2022-12-23T20:36:36.181Z,7.45
2022-12-23T20:39:04.278Z,7.39
2022-12-23T20:41:32.611Z,7.31
2022-12-23T20:44:33.040Z,7.28
2022-12-23T20:46:48.235Z,7.19
2022-12-23T20:49:15.653Z,7.20
2022-12-23T20:51:43.210Z,7.22
2022-12-23T20:54:10.481Z,7.22
2022-12-23T20:56:38.095Z,7.22
2022-12-23T20:59:05.423Z,7.20
2022-12-23T21:01:38.097Z,7.21
2022-12-23T21:04:13.047Z,7.27
2022-12-23T21:06:40.892Z,7.34
2022-12-23T21:09:12.302Z,7.21
2022-12-23T21:11:43.735Z,7.19
2022-12-23T21:14:12.319Z,7.25
2022-12-23T21:16:40.674Z,7.40
2022-12-23T21:19:15.519Z,7.31
2022-12-23T21:21:43.223Z,7.35
2022-12-23T21:24:11.452Z,7.32
2022-12-23T21:26:39.839Z,7.35
2022-12-23T21:29:10.387Z,7.40
2022-12-23T21:31:41.221Z,7.42
2022-12-23T21:34:09.281Z,7.43
2022-12-23T21:36:38.971Z,7.49
2022-12-23T21:39:08.426Z,7.46
2022-12-23T21:41:38.832Z,7.51
2022-12-23T21:44:06.840Z,7.59
2022-12-23T21:46:43.598Z,7.52
2022-12-23T21:49:11.535Z,7.57
2022-12-23T21:51:41.030Z,7.58
2022-12-23T21:54:10.916Z,7.56
2022-12-23T21:56:41.075Z,7.72
2022-12-23T21:59:15.285Z,7.74
2022-12-23T22:01:43.776Z,7.68
2022-12-23T22:04:12.049Z,7.75
2022-12-23T22:06:45.958Z,7.88
2022-12-23T22:09:18.287Z,7.91
2022-12-23T22:11:47.155Z,7.75
2022-12-23T22:14:18.207Z,7.65
2022-12-23T22:16:46.048Z,7.60
2022-12-23T22:19:13.672Z,7.69
2022-12-23T22:21:42.729Z,7.67
2022-12-23T22:24:10.378Z,7.84
2022-12-23T22:26:39.648Z,7.75
2022-12-23T22:29:07.299Z,7.68
2022-12-23T22:31:46.219Z,7.74
2022-12-23T22:34:17.587Z,7.64
2022-12-23T22:36:45.522Z,7.74
2022-12-23T22:39:20.092Z,7.61
2022-12-23T22:41:50.228Z,7.57
2022-12-23T22:44:18.848Z,7.48
2022-12-23T22:46:46.789Z,7.34
2022-12-23T22:49:15.849Z,7.29
2022-12-23T22:51:44.248Z,7.34
2022-12-23T22:54:11.900Z,7.50
2022-12-23T22:56:39.713Z,7.46
2022-12-23T22:59:07.053Z,7.45
2022-12-23T23:01:36.476Z,7.36
2022-12-23T23:04:04.752Z,7.25
2022-12-23T23:06:38.017Z,7.26
2022-12-23T23:09:10.394Z,7.15
2022-12-23T23:11:38.386Z,7.34
2022-12-23T23:14:06.493Z,7.13
2022-12-23T23:16:34.247Z,7.15
2022-12-23T23:19:02.727Z,7.16
2022-12-23T23:21:30.383Z,7.19
2022-12-23T23:23:57.713Z,7.25
2022-12-23T23:26:27.467Z,7.24
2022-12-23T23:28:56.409Z,7.29
2022-12-23T23:31:42.071Z,7.28
2022-12-23T23:34:10.210Z,7.22
2022-12-23T23:36:37.872Z,7.18
2022-12-23T23:39:05.209Z,7.29
2022-12-23T23:41:32.850Z,7.32
2022-12-23T23:44:00.601Z,7.27
2022-12-23T23:46:28.149Z,7.23
2022-12-23T23:48:55.445Z,7.14
2022-12-23T23:51:23.897Z,7.25
2022-12-23T23:53:51.202Z,7.36
2022-12-23T23:56:24.769Z,7.22
2022-12-23T23:58:52.956Z,7.13
